createdAt,value
2024-01-27T00:00:03.164Z,4.46
2024-01-27T00:15:00.880Z,4.46
2024-01-27T00:30:00.805Z,4.46
2024-01-27T00:45:00.546Z,4.55
2024-01-27T01:00:00.695Z,4.55
2024-01-27T01:15:00.709Z,4.55
2024-01-27T01:30:01.095Z,4.55
2024-01-27T01:45:00.565Z,4.33
2024-01-27T02:00:00.824Z,4.33
2024-01-27T02:15:00.772Z,4.33
2024-01-27T02:30:00.639Z,4.33
2024-01-27T02:45:00.612Z,4.42
2024-01-27T03:00:00.589Z,4.42
2024-01-27T03:15:00.739Z,4.42
2024-01-27T03:30:00.747Z,4.42
2024-01-27T03:45:00.615Z,4.43
2024-01-27T04:00:01.459Z,4.43
2024-01-27T04:15:00.640Z,4.43
2024-01-27T04:30:00.854Z,4.43
2024-01-27T04:45:00.545Z,4.24
2024-01-27T05:00:00.941Z,4.24
2024-01-27T05:15:00.843Z,4.24
2024-01-27T05:30:00.739Z,4.24
2024-01-27T05:45:00.564Z,4.2
2024-01-27T06:00:01.159Z,4.2
2024-01-27T06:15:00.598Z,4.2
2024-01-27T06:30:01.328Z,4.2
2024-01-27T06:45:00.743Z,4.4
2024-01-27T07:00:00.682Z,4.4
2024-01-27T07:15:00.483Z,4.4
2024-01-27T07:30:00.680Z,4.4
2024-01-27T07:45:00.966Z,4.22
2024-01-27T08:00:01.064Z,4.22
2024-01-27T08:15:01.130Z,4.22
2024-01-27T08:30:01.147Z,4.22
2024-01-27T08:45:00.844Z,4.3
2024-01-27T09:00:00.989Z,4.3
2024-01-27T09:15:00.708Z,4.3
2024-01-27T09:30:00.997Z,4.3
2024-01-27T09:45:00.759Z,5.1
2024-01-27T10:00:00.778Z,5.1
2024-01-27T10:15:01.740Z,5.1
2024-01-27T10:30:00.549Z,5.1
2024-01-27T10:45:00.861Z,5.04
2024-01-27T11:00:00.608Z,5.04
2024-01-27T11:15:00.738Z,5.04
2024-01-27T11:30:01.127Z,5.04
2024-01-27T11:45:00.681Z,4.86
2024-01-27T12:00:01.408Z,4.86
2024-01-27T12:15:00.683Z,4.86
2024-01-27T12:30:00.662Z,4.86
2024-01-27T12:45:00.972Z,4.31
2024-01-27T13:00:01.167Z,4.31
2024-01-27T13:15:00.652Z,4.31
2024-01-27T13:30:00.554Z,4.31
2024-01-27T13:45:01.657Z,3.71
2024-01-27T14:00:01.030Z,3.71
2024-01-27T14:15:00.843Z,3.71
2024-01-27T14:30:00.578Z,3.71
2024-01-27T14:45:00.887Z,2.47
2024-01-27T15:00:01.008Z,2.47
2024-01-27T15:15:00.786Z,2.47
2024-01-27T15:30:00.684Z,2.47
2024-01-27T15:45:00.624Z,2.39
2024-01-27T16:00:00.580Z,2.39
2024-01-27T16:15:00.711Z,2.39
2024-01-27T16:30:00.524Z,2.39
2024-01-27T16:45:00.556Z,2.19
2024-01-27T17:00:01.033Z,2.19
2024-01-27T17:15:01.293Z,2.19
2024-01-27T17:30:00.570Z,2.32
2024-01-27T17:45:00.705Z,2.63
2024-01-27T18:00:02.162Z,2.63
2024-01-27T18:15:00.776Z,2.63
2024-01-27T18:30:00.636Z,2.63
2024-01-27T18:45:00.612Z,2.64
2024-01-27T19:00:00.950Z,2.64
2024-01-27T19:15:00.293Z,2.64
2024-01-27T19:30:00.892Z,2.64
2024-01-27T19:45:00.319Z,2.33
2024-01-27T20:00:00.943Z,2.33
2024-01-27T20:15:00.444Z,2.33
2024-01-27T20:30:00.599Z,2.33
2024-01-27T20:45:00.503Z,1.96
2024-01-27T21:00:00.438Z,1.96
2024-01-27T21:15:00.495Z,1.96
2024-01-27T21:30:00.783Z,1.96
2024-01-27T21:45:00.772Z,2.23
2024-01-27T23:00:00.353Z,2.5
2024-01-27T23:15:00.412Z,2.5
2024-01-27T23:30:00.882Z,2.5
2024-01-27T23:45:00.523Z,2.4
